sensor_id;sensor_type;location;lat;lon;timestamp;P1;durP1;ratioP1;P2;durP2;ratioP2
20118;SDS011;10220;42.716;23.306;2023-03-08T00:02:04;11.45;;;6.55;;
20118;SDS011;10220;42.716;23.306;2023-03-08T00:04:29;11.30;;;6.05;;
20118;SDS011;10220;42.716;23.306;2023-03-08T00:06:55;12.82;;;7.80;;
20118;SDS011;10220;42.716;23.306;2023-03-08T00:09:20;15.05;;;7.43;;
20118;SDS011;10220;42.716;23.306;2023-03-08T00:11:46;18.88;;;8.27;;
20118;SDS011;10220;42.716;23.306;2023-03-08T00:14:14;14.90;;;8.02;;
20118;SDS011;10220;42.716;23.306;2023-03-08T00:16:40;7.67;;;5.00;;
20118;SDS011;10220;42.716;23.306;2023-03-08T00:19:05;12.82;;;6.45;;
20118;SDS011;10220;42.716;23.306;2023-03-08T00:21:31;9.53;;;6.60;;
20118;SDS011;10220;42.716;23.306;2023-03-08T00:23:56;10.93;;;6.10;;
20118;SDS011;10220;42.716;23.306;2023-03-08T00:26:22;9.40;;;5.27;;
20118;SDS011;10220;42.716;23.306;2023-03-08T00:28:47;11.50;;;5.20;;
20118;SDS011;10220;42.716;23.306;2023-03-08T00:31:13;12.00;;;5.23;;
20118;SDS011;10220;42.716;23.306;2023-03-08T00:33:38;7.73;;;5.17;;
20118;SDS011;10220;42.716;23.306;2023-03-08T00:36:07;11.10;;;5.90;;
20118;SDS011;10220;42.716;23.306;2023-03-08T00:38:37;7.03;;;4.43;;
20118;SDS011;10220;42.716;23.306;2023-03-08T00:41:02;13.47;;;5.13;;
20118;SDS011;10220;42.716;23.306;2023-03-08T00:43:31;9.53;;;4.93;;
20118;SDS011;10220;42.716;23.306;2023-03-08T00:45:59;6.60;;;4.37;;
20118;SDS011;10220;42.716;23.306;2023-03-08T00:48:25;7.83;;;4.53;;
20118;SDS011;10220;42.716;23.306;2023-03-08T00:50:51;7.67;;;4.73;;
20118;SDS011;10220;42.716;23.306;2023-03-08T00:53:18;10.13;;;5.07;;
20118;SDS011;10220;42.716;23.306;2023-03-08T00:58:21;8.23;;;4.57;;
20118;SDS011;10220;42.716;23.306;2023-03-08T01:00:48;8.07;;;5.33;;
20118;SDS011;10220;42.716;23.306;2023-03-08T01:03:14;7.43;;;5.17;;
20118;SDS011;10220;42.716;23.306;2023-03-08T01:05:41;9.17;;;4.63;;
20118;SDS011;10220;42.716;23.306;2023-03-08T01:08:14;6.53;;;4.00;;
20118;SDS011;10220;42.716;23.306;2023-03-08T01:10:51;7.47;;;4.20;;
20118;SDS011;10220;42.716;23.306;2023-03-08T01:13:21;10.53;;;5.37;;
20118;SDS011;10220;42.716;23.306;2023-03-08T01:15:47;5.30;;;4.17;;
20118;SDS011;10220;42.716;23.306;2023-03-08T01:18:13;7.30;;;4.63;;
20118;SDS011;10220;42.716;23.306;2023-03-08T01:20:42;9.13;;;4.20;;
20118;SDS011;10220;42.716;23.306;2023-03-08T01:23:08;7.43;;;4.50;;
20118;SDS011;10220;42.716;23.306;2023-03-08T01:25:34;5.37;;;4.50;;
20118;SDS011;10220;42.716;23.306;2023-03-08T01:28:05;5.03;;;4.50;;
20118;SDS011;10220;42.716;23.306;2023-03-08T01:30:37;6.77;;;4.33;;
20118;SDS011;10220;42.716;23.306;2023-03-08T01:33:03;11.83;;;5.77;;
20118;SDS011;10220;42.716;23.306;2023-03-08T01:35:28;8.20;;;5.50;;
20118;SDS011;10220;42.716;23.306;2023-03-08T01:37:53;7.67;;;5.40;;
20118;SDS011;10220;42.716;23.306;2023-03-08T01:40:19;6.20;;;4.43;;
20118;SDS011;10220;42.716;23.306;2023-03-08T01:42:45;11.50;;;5.40;;
20118;SDS011;10220;42.716;23.306;2023-03-08T01:48:13;6.77;;;4.57;;
20118;SDS011;10220;42.716;23.306;2023-03-08T01:50:40;7.77;;;4.20;;
20118;SDS011;10220;42.716;23.306;2023-03-08T01:53:06;10.03;;;5.93;;
20118;SDS011;10220;42.716;23.306;2023-03-08T01:55:32;7.53;;;4.33;;
20118;SDS011;10220;42.716;23.306;2023-03-08T01:58:01;9.07;;;5.00;;
20118;SDS011;10220;42.716;23.306;2023-03-08T02:00:27;12.87;;;5.97;;
20118;SDS011;10220;42.716;23.306;2023-03-08T02:03:03;6.17;;;3.97;;
20118;SDS011;10220;42.716;23.306;2023-03-08T02:05:31;12.23;;;6.40;;
20118;SDS011;10220;42.716;23.306;2023-03-08T02:08:00;14.07;;;5.83;;
20118;SDS011;10220;42.716;23.306;2023-03-08T02:10:25;7.93;;;5.67;;
20118;SDS011;10220;42.716;23.306;2023-03-08T02:12:51;9.40;;;5.60;;
20118;SDS011;10220;42.716;23.306;2023-03-08T02:15:17;10.60;;;4.93;;
20118;SDS011;10220;42.716;23.306;2023-03-08T02:17:44;11.60;;;6.10;;
20118;SDS011;10220;42.716;23.306;2023-03-08T02:20:23;7.33;;;4.90;;
20118;SDS011;10220;42.716;23.306;2023-03-08T02:23:05;10.27;;;5.27;;
20118;SDS011;10220;42.716;23.306;2023-03-08T02:25:31;9.70;;;4.70;;
20118;SDS011;10220;42.716;23.306;2023-03-08T02:27:57;11.27;;;6.07;;
20118;SDS011;10220;42.716;23.306;2023-03-08T02:30:24;7.50;;;5.00;;
20118;SDS011;10220;42.716;23.306;2023-03-08T02:32:51;7.67;;;5.03;;
20118;SDS011;10220;42.716;23.306;2023-03-08T02:35:16;11.37;;;5.77;;
20118;SDS011;10220;42.716;23.306;2023-03-08T02:37:42;10.63;;;6.23;;
20118;SDS011;10220;42.716;23.306;2023-03-08T02:40:08;9.70;;;4.90;;
20118;SDS011;10220;42.716;23.306;2023-03-08T02:42:34;10.63;;;6.03;;
20118;SDS011;10220;42.716;23.306;2023-03-08T02:44:59;12.03;;;6.47;;
20118;SDS011;10220;42.716;23.306;2023-03-08T02:47:25;11.77;;;5.77;;
20118;SDS011;10220;42.716;23.306;2023-03-08T02:49:50;12.83;;;5.77;;
20118;SDS011;10220;42.716;23.306;2023-03-08T02:52:15;7.50;;;5.03;;
20118;SDS011;10220;42.716;23.306;2023-03-08T02:54:41;15.43;;;6.37;;
20118;SDS011;10220;42.716;23.306;2023-03-08T02:57:06;8.20;;;5.07;;
20118;SDS011;10220;42.716;23.306;2023-03-08T02:59:32;9.33;;;5.27;;
20118;SDS011;10220;42.716;23.306;2023-03-08T03:01:57;8.10;;;4.97;;
20118;SDS011;10220;42.716;23.306;2023-03-08T03:04:24;8.47;;;5.13;;
20118;SDS011;10220;42.716;23.306;2023-03-08T03:06:54;9.90;;;4.77;;
20118;SDS011;10220;42.716;23.306;2023-03-08T03:09:20;9.97;;;4.93;;
20118;SDS011;10220;42.716;23.306;2023-03-08T03:11:45;8.57;;;4.70;;
20118;SDS011;10220;42.716;23.306;2023-03-08T03:14:11;11.43;;;5.47;;
20118;SDS011;10220;42.716;23.306;2023-03-08T03:16:36;14.97;;;6.83;;
20118;SDS011;10220;42.716;23.306;2023-03-08T03:19:02;13.40;;;7.23;;
20118;SDS011;10220;42.716;23.306;2023-03-08T03:21:27;10.97;;;6.77;;
20118;SDS011;10220;42.716;23.306;2023-03-08T03:23:55;10.03;;;5.47;;
20118;SDS011;10220;42.716;23.306;2023-03-08T03:26:21;7.73;;;4.97;;
20118;SDS011;10220;42.716;23.306;2023-03-08T03:28:48;26.13;;;7.30;;
20118;SDS011;10220;42.716;23.306;2023-03-08T03:31:18;9.43;;;5.67;;
20118;SDS011;10220;42.716;23.306;2023-03-08T03:33:45;9.63;;;5.87;;
20118;SDS011;10220;42.716;23.306;2023-03-08T03:36:13;7.63;;;5.07;;
20118;SDS011;10220;42.716;23.306;2023-03-08T03:38:41;6.63;;;4.70;;
20118;SDS011;10220;42.716;23.306;2023-03-08T03:41:08;7.97;;;5.40;;
20118;SDS011;10220;42.716;23.306;2023-03-08T03:43:36;11.53;;;5.77;;
20118;SDS011;10220;42.716;23.306;2023-03-08T03:46:10;7.80;;;4.87;;
20118;SDS011;10220;42.716;23.306;2023-03-08T03:48:37;8.17;;;4.87;;
20118;SDS011;10220;42.716;23.306;2023-03-08T03:51:03;7.57;;;3.70;;
20118;SDS011;10220;42.716;23.306;2023-03-08T03:53:32;11.00;;;4.97;;
20118;SDS011;10220;42.716;23.306;2023-03-08T03:56:16;7.27;;;4.50;;
20118;SDS011;10220;42.716;23.306;2023-03-08T03:58:44;7.60;;;5.23;;
20118;SDS011;10220;42.716;23.306;2023-03-08T04:01:11;8.77;;;5.13;;
20118;SDS011;10220;42.716;23.306;2023-03-08T04:03:40;7.27;;;5.33;;
20118;SDS011;10220;42.716;23.306;2023-03-08T04:06:10;7.97;;;4.83;;
20118;SDS011;10220;42.716;23.306;2023-03-08T04:08:38;7.07;;;4.80;;
20118;SDS011;10220;42.716;23.306;2023-03-08T04:11:10;7.00;;;4.27;;
20118;SDS011;10220;42.716;23.306;2023-03-08T04:13:38;4.30;;;3.23;;
20118;SDS011;10220;42.716;23.306;2023-03-08T04:16:11;9.83;;;5.40;;
20118;SDS011;10220;42.716;23.306;2023-03-08T04:18:43;10.03;;;4.53;;
20118;SDS011;10220;42.716;23.306;2023-03-08T04:21:09;6.67;;;5.03;;
20118;SDS011;10220;42.716;23.306;2023-03-08T04:23:35;8.20;;;5.30;;
20118;SDS011;10220;42.716;23.306;2023-03-08T04:26:03;7.17;;;5.40;;
20118;SDS011;10220;42.716;23.306;2023-03-08T04:28:32;11.57;;;5.27;;
20118;SDS011;10220;42.716;23.306;2023-03-08T04:30:58;8.13;;;5.63;;
20118;SDS011;10220;42.716;23.306;2023-03-08T04:33:25;8.53;;;5.13;;
20118;SDS011;10220;42.716;23.306;2023-03-08T04:35:50;8.33;;;5.07;;
20118;SDS011;10220;42.716;23.306;2023-03-08T04:38:16;12.03;;;5.33;;
20118;SDS011;10220;42.716;23.306;2023-03-08T04:40:46;15.13;;;5.90;;
20118;SDS011;10220;42.716;23.306;2023-03-08T04:43:29;8.20;;;5.37;;
20118;SDS011;10220;42.716;23.306;2023-03-08T04:45:55;7.30;;;5.43;;
20118;SDS011;10220;42.716;23.306;2023-03-08T04:48:21;10.93;;;4.80;;
20118;SDS011;10220;42.716;23.306;2023-03-08T04:50:53;8.13;;;5.87;;
20118;SDS011;10220;42.716;23.306;2023-03-08T04:53:19;19.23;;;6.30;;
20118;SDS011;10220;42.716;23.306;2023-03-08T04:55:47;11.40;;;5.87;;
20118;SDS011;10220;42.716;23.306;2023-03-08T04:58:13;6.27;;;5.40;;
20118;SDS011;10220;42.716;23.306;2023-03-08T05:00:39;10.63;;;5.77;;
20118;SDS011;10220;42.716;23.306;2023-03-08T05:03:07;11.13;;;7.00;;
20118;SDS011;10220;42.716;23.306;2023-03-08T05:05:33;19.00;;;8.13;;
20118;SDS011;10220;42.716;23.306;2023-03-08T05:07:59;15.00;;;7.43;;
20118;SDS011;10220;42.716;23.306;2023-03-08T05:10:28;12.57;;;8.20;;
20118;SDS011;10220;42.716;23.306;2023-03-08T05:12:54;12.07;;;8.17;;
20118;SDS011;10220;42.716;23.306;2023-03-08T05:15:19;13.87;;;8.20;;
20118;SDS011;10220;42.716;23.306;2023-03-08T05:17:47;12.53;;;6.80;;
20118;SDS011;10220;42.716;23.306;2023-03-08T05:20:13;13.90;;;7.70;;
20118;SDS011;10220;42.716;23.306;2023-03-08T05:22:39;14.60;;;7.77;;
20118;SDS011;10220;42.716;23.306;2023-03-08T05:25:07;22.40;;;8.17;;
20118;SDS011;10220;42.716;23.306;2023-03-08T05:27:33;10.20;;;6.77;;
20118;SDS011;10220;42.716;23.306;2023-03-08T05:30:02;12.60;;;7.93;;
20118;SDS011;10220;42.716;23.306;2023-03-08T05:32:29;20.73;;;8.23;;
20118;SDS011;10220;42.716;23.306;2023-03-08T05:34:55;11.93;;;6.93;;
20118;SDS011;10220;42.716;23.306;2023-03-08T05:37:20;13.87;;;6.60;;
20118;SDS011;10220;42.716;23.306;2023-03-08T05:39:49;13.33;;;7.57;;
20118;SDS011;10220;42.716;23.306;2023-03-08T05:42:15;10.17;;;6.30;;
20118;SDS011;10220;42.716;23.306;2023-03-08T05:44:41;13.27;;;6.03;;
20118;SDS011;10220;42.716;23.306;2023-03-08T05:47:06;11.37;;;6.50;;
20118;SDS011;10220;42.716;23.306;2023-03-08T05:49:31;15.63;;;7.07;;
20118;SDS011;10220;42.716;23.306;2023-03-08T05:51:57;8.67;;;6.27;;
20118;SDS011;10220;42.716;23.306;2023-03-08T05:54:22;17.33;;;6.23;;
20118;SDS011;10220;42.716;23.306;2023-03-08T05:56:57;16.87;;;7.07;;
20118;SDS011;10220;42.716;23.306;2023-03-08T05:59:22;9.40;;;6.00;;
20118;SDS011;10220;42.716;23.306;2023-03-08T06:01:50;13.50;;;6.47;;
20118;SDS011;10220;42.716;23.306;2023-03-08T06:04:16;10.83;;;6.73;;
20118;SDS011;10220;42.716;23.306;2023-03-08T06:06:42;9.37;;;6.67;;
20118;SDS011;10220;42.716;23.306;2023-03-08T06:09:10;14.10;;;6.63;;
20118;SDS011;10220;42.716;23.306;2023-03-08T06:11:36;14.43;;;8.63;;
20118;SDS011;10220;42.716;23.306;2023-03-08T06:14:04;18.90;;;12.60;;
20118;SDS011;10220;42.716;23.306;2023-03-08T06:16:29;18.67;;;11.13;;
20118;SDS011;10220;42.716;23.306;2023-03-08T06:18:54;32.22;;;16.60;;
20118;SDS011;10220;42.716;23.306;2023-03-08T06:21:20;31.42;;;13.98;;
20118;SDS011;10220;42.716;23.306;2023-03-08T06:23:46;43.80;;;22.80;;
20118;SDS011;10220;42.716;23.306;2023-03-08T06:26:13;20.30;;;11.27;;
20118;SDS011;10220;42.716;23.306;2023-03-08T06:28:39;23.70;;;10.85;;
20118;SDS011;10220;42.716;23.306;2023-03-08T06:31:05;17.52;;;11.23;;
20118;SDS011;10220;42.716;23.306;2023-03-08T06:33:31;26.35;;;9.80;;
20118;SDS011;10220;42.716;23.306;2023-03-08T06:36:02;17.35;;;10.02;;
20118;SDS011;10220;42.716;23.306;2023-03-08T06:38:28;19.40;;;8.05;;
20118;SDS011;10220;42.716;23.306;2023-03-08T06:40:56;18.08;;;9.90;;
20118;SDS011;10220;42.716;23.306;2023-03-08T06:43:21;22.30;;;10.82;;
20118;SDS011;10220;42.716;23.306;2023-03-08T06:45:47;16.52;;;8.65;;
20118;SDS011;10220;42.716;23.306;2023-03-08T06:48:13;18.58;;;7.95;;
20118;SDS011;10220;42.716;23.306;2023-03-08T06:50:38;22.38;;;10.13;;
20118;SDS011;10220;42.716;23.306;2023-03-08T06:53:04;25.08;;;11.13;;
20118;SDS011;10220;42.716;23.306;2023-03-08T06:55:30;20.48;;;11.77;;
20118;SDS011;10220;42.716;23.306;2023-03-08T06:57:56;22.80;;;11.27;;
20118;SDS011;10220;42.716;23.306;2023-03-08T07:00:21;26.10;;;11.88;;
20118;SDS011;10220;42.716;23.306;2023-03-08T07:02:47;32.00;;;15.65;;
20118;SDS011;10220;42.716;23.306;2023-03-08T07:05:16;20.75;;;9.02;;
20118;SDS011;10220;42.716;23.306;2023-03-08T07:07:42;8.27;;;5.25;;
20118;SDS011;10220;42.716;23.306;2023-03-08T07:10:07;17.60;;;7.13;;
20118;SDS011;10220;42.716;23.306;2023-03-08T07:12:35;9.75;;;3.80;;
20118;SDS011;10220;42.716;23.306;2023-03-08T07:15:04;9.27;;;4.35;;
20118;SDS011;10220;42.716;23.306;2023-03-08T07:17:31;7.47;;;3.75;;
20118;SDS011;10220;42.716;23.306;2023-03-08T07:19:58;7.07;;;3.58;;
20118;SDS011;10220;42.716;23.306;2023-03-08T07:22:24;6.90;;;3.33;;
20118;SDS011;10220;42.716;23.306;2023-03-08T07:24:49;12.57;;;7.05;;
20118;SDS011;10220;42.716;23.306;2023-03-08T07:27:15;22.85;;;12.48;;
20118;SDS011;10220;42.716;23.306;2023-03-08T07:29:40;6.97;;;4.00;;
20118;SDS011;10220;42.716;23.306;2023-03-08T07:32:06;27.10;;;13.90;;
20118;SDS011;10220;42.716;23.306;2023-03-08T07:34:31;36.15;;;20.75;;
20118;SDS011;10220;42.716;23.306;2023-03-08T07:36:57;20.67;;;9.52;;
20118;SDS011;10220;42.716;23.306;2023-03-08T07:39:22;10.43;;;4.78;;
20118;SDS011;10220;42.716;23.306;2023-03-08T07:41:48;6.57;;;4.40;;
20118;SDS011;10220;42.716;23.306;2023-03-08T07:44:14;7.20;;;4.20;;
20118;SDS011;10220;42.716;23.306;2023-03-08T07:46:39;10.13;;;4.72;;
20118;SDS011;10220;42.716;23.306;2023-03-08T07:49:05;8.60;;;4.38;;
20118;SDS011;10220;42.716;23.306;2023-03-08T07:51:35;10.00;;;4.35;;
20118;SDS011;10220;42.716;23.306;2023-03-08T07:54:01;10.27;;;5.35;;
20118;SDS011;10220;42.716;23.306;2023-03-08T07:56:26;8.95;;;4.55;;
20118;SDS011;10220;42.716;23.306;2023-03-08T07:58:54;12.18;;;6.95;;
20118;SDS011;10220;42.716;23.306;2023-03-08T08:01:21;6.70;;;3.85;;
20118;SDS011;10220;42.716;23.306;2023-03-08T08:03:46;10.15;;;4.65;;
20118;SDS011;10220;42.716;23.306;2023-03-08T08:06:12;7.05;;;4.38;;
20118;SDS011;10220;42.716;23.306;2023-03-08T08:08:37;10.23;;;5.28;;
20118;SDS011;10220;42.716;23.306;2023-03-08T08:11:08;8.55;;;3.33;;
20118;SDS011;10220;42.716;23.306;2023-03-08T08:13:37;7.15;;;3.72;;
20118;SDS011;10220;42.716;23.306;2023-03-08T08:16:03;7.07;;;4.00;;
20118;SDS011;10220;42.716;23.306;2023-03-08T08:18:31;5.78;;;3.63;;
20118;SDS011;10220;42.716;23.306;2023-03-08T08:21:00;8.88;;;3.70;;
20118;SDS011;10220;42.716;23.306;2023-03-08T08:23:27;7.75;;;4.43;;
20118;SDS011;10220;42.716;23.306;2023-03-08T08:25:53;7.28;;;4.15;;
20118;SDS011;10220;42.716;23.306;2023-03-08T08:28:20;8.52;;;4.25;;
20118;SDS011;10220;42.716;23.306;2023-03-08T08:30:53;8.25;;;4.13;;
20118;SDS011;10220;42.716;23.306;2023-03-08T08:33:23;8.07;;;4.53;;
20118;SDS011;10220;42.716;23.306;2023-03-08T08:35:49;11.95;;;5.50;;
20118;SDS011;10220;42.716;23.306;2023-03-08T08:38:14;10.25;;;5.57;;
20118;SDS011;10220;42.716;23.306;2023-03-08T08:40:39;12.10;;;5.50;;
20118;SDS011;10220;42.716;23.306;2023-03-08T08:43:05;11.18;;;5.80;;
20118;SDS011;10220;42.716;23.306;2023-03-08T08:45:30;11.02;;;6.43;;
20118;SDS011;10220;42.716;23.306;2023-03-08T08:47:56;12.70;;;5.68;;
20118;SDS011;10220;42.716;23.306;2023-03-08T08:50:21;11.85;;;5.53;;
20118;SDS011;10220;42.716;23.306;2023-03-08T08:52:46;10.75;;;5.68;;
20118;SDS011;10220;42.716;23.306;2023-03-08T08:55:12;13.13;;;5.78;;
20118;SDS011;10220;42.716;23.306;2023-03-08T08:57:37;8.57;;;5.18;;
20118;SDS011;10220;42.716;23.306;2023-03-08T09:00:03;12.45;;;5.22;;
20118;SDS011;10220;42.716;23.306;2023-03-08T09:02:34;10.18;;;4.65;;
20118;SDS011;10220;42.716;23.306;2023-03-08T09:05:00;8.50;;;5.07;;
20118;SDS011;10220;42.716;23.306;2023-03-08T09:07:26;10.38;;;5.00;;
20118;SDS011;10220;42.716;23.306;2023-03-08T09:09:54;7.22;;;4.35;;
20118;SDS011;10220;42.716;23.306;2023-03-08T09:12:20;7.03;;;4.10;;
20118;SDS011;10220;42.716;23.306;2023-03-08T09:14:46;7.72;;;4.60;;
20118;SDS011;10220;42.716;23.306;2023-03-08T09:17:11;9.95;;;4.63;;
20118;SDS011;10220;42.716;23.306;2023-03-08T09:19:37;10.90;;;5.00;;
20118;SDS011;10220;42.716;23.306;2023-03-08T09:22:02;9.93;;;4.72;;
20118;SDS011;10220;42.716;23.306;2023-03-08T09:24:28;5.72;;;4.43;;
20118;SDS011;10220;42.716;23.306;2023-03-08T09:26:54;14.75;;;7.25;;
20118;SDS011;10220;42.716;23.306;2023-03-08T09:29:19;11.02;;;6.60;;
20118;SDS011;10220;42.716;23.306;2023-03-08T09:31:44;11.85;;;6.53;;
20118;SDS011;10220;42.716;23.306;2023-03-08T09:34:13;12.50;;;7.45;;
20118;SDS011;10220;42.716;23.306;2023-03-08T09:36:39;9.18;;;4.80;;
20118;SDS011;10220;42.716;23.306;2023-03-08T09:39:09;7.65;;;4.15;;
20118;SDS011;10220;42.716;23.306;2023-03-08T09:44:15;19.73;;;12.25;;
20118;SDS011;10220;42.716;23.306;2023-03-08T09:49:55;14.27;;;8.38;;
20118;SDS011;10220;42.716;23.306;2023-03-08T09:52:36;13.77;;;7.18;;
20118;SDS011;10220;42.716;23.306;2023-03-08T09:55:07;9.98;;;5.13;;
20118;SDS011;10220;42.716;23.306;2023-03-08T09:58:01;13.18;;;7.47;;
20118;SDS011;10220;42.716;23.306;2023-03-08T10:00:38;9.57;;;4.65;;
20118;SDS011;10220;42.716;23.306;2023-03-08T10:08:14;11.88;;;6.82;;
20118;SDS011;10220;42.716;23.306;2023-03-08T10:18:34;24.98;;;14.52;;
20118;SDS011;10220;42.716;23.306;2023-03-08T10:21:11;11.18;;;4.78;;
20118;SDS011;10220;42.716;23.306;2023-03-08T10:23:41;13.65;;;8.07;;
20118;SDS011;10220;42.716;23.306;2023-03-08T10:26:10;17.67;;;11.13;;
20118;SDS011;10220;42.716;23.306;2023-03-08T10:28:36;9.10;;;5.90;;
20118;SDS011;10220;42.716;23.306;2023-03-08T10:31:05;8.55;;;4.90;;
20118;SDS011;10220;42.716;23.306;2023-03-08T10:33:52;6.32;;;4.05;;
20118;SDS011;10220;42.716;23.306;2023-03-08T10:36:24;6.32;;;3.60;;
20118;SDS011;10220;42.716;23.306;2023-03-08T10:38:57;10.65;;;6.78;;
20118;SDS011;10220;42.716;23.306;2023-03-08T10:41:26;4.47;;;2.72;;
20118;SDS011;10220;42.716;23.306;2023-03-08T10:43:54;4.63;;;3.42;;
20118;SDS011;10220;42.716;23.306;2023-03-08T10:46:25;8.75;;;4.63;;
20118;SDS011;10220;42.716;23.306;2023-03-08T10:48:54;8.60;;;2.13;;
20118;SDS011;10220;42.716;23.306;2023-03-08T10:51:31;5.28;;;2.53;;
20118;SDS011;10220;42.716;23.306;2023-03-08T10:53:58;4.28;;;2.40;;
20118;SDS011;10220;42.716;23.306;2023-03-08T10:56:30;6.05;;;2.70;;
20118;SDS011;10220;42.716;23.306;2023-03-08T10:59:19;3.30;;;1.90;;
20118;SDS011;10220;42.716;23.306;2023-03-08T11:01:53;3.92;;;2.05;;
20118;SDS011;10220;42.716;23.306;2023-03-08T11:04:21;5.85;;;2.90;;
20118;SDS011;10220;42.716;23.306;2023-03-08T11:06:48;2.75;;;1.90;;
20118;SDS011;10220;42.716;23.306;2023-03-08T11:09:24;3.65;;;1.60;;
20118;SDS011;10220;42.716;23.306;2023-03-08T11:11:52;5.47;;;1.67;;
20118;SDS011;10220;42.716;23.306;2023-03-08T11:14:18;1.55;;;1.08;;
20118;SDS011;10220;42.716;23.306;2023-03-08T11:16:46;2.10;;;1.33;;
20118;SDS011;10220;42.716;23.306;2023-03-08T11:19:41;1.13;;;0.90;;
20118;SDS011;10220;42.716;23.306;2023-03-08T11:51:53;1.33;;;0.90;;
20118;SDS011;10220;42.716;23.306;2023-03-08T11:54:27;1.83;;;1.00;;
20118;SDS011;10220;42.716;23.306;2023-03-08T11:57:00;2.42;;;0.90;;
20118;SDS011;10220;42.716;23.306;2023-03-08T11:59:38;1.73;;;0.68;;
20118;SDS011;10220;42.716;23.306;2023-03-08T12:04:37;1.60;;;1.10;;
20118;SDS011;10220;42.716;23.306;2023-03-08T12:10:33;0.60;;;0.60;;
20118;SDS011;10220;42.716;23.306;2023-03-08T12:12:58;1.42;;;0.77;;
20118;SDS011;10220;42.716;23.306;2023-03-08T12:15:32;1.48;;;0.88;;
20118;SDS011;10220;42.716;23.306;2023-03-08T12:18:17;0.80;;;0.80;;
20118;SDS011;10220;42.716;23.306;2023-03-08T12:20:49;0.70;;;0.60;;
20118;SDS011;10220;42.716;23.306;2023-03-08T12:24:01;1.00;;;0.80;;
20118;SDS011;10220;42.716;23.306;2023-03-08T12:26:13;0.93;;;0.65;;
20118;SDS011;10220;42.716;23.306;2023-03-08T12:28:47;0.55;;;0.55;;
20118;SDS011;10220;42.716;23.306;2023-03-08T12:31:27;0.80;;;0.80;;
20118;SDS011;10220;42.716;23.306;2023-03-08T12:33:59;1.38;;;0.90;;
20118;SDS011;10220;42.716;23.306;2023-03-08T12:36:41;1.42;;;0.93;;
20118;SDS011;10220;42.716;23.306;2023-03-08T12:39:24;3.60;;;0.75;;
20118;SDS011;10220;42.716;23.306;2023-03-08T12:41:57;0.95;;;0.80;;
20118;SDS011;10220;42.716;23.306;2023-03-08T12:44:35;0.77;;;0.77;;
20118;SDS011;10220;42.716;23.306;2023-03-08T12:49:37;1.92;;;0.70;;
20118;SDS011;10220;42.716;23.306;2023-03-08T12:52:26;0.80;;;0.70;;
20118;SDS011;10220;42.716;23.306;2023-03-08T12:55:04;1.38;;;0.90;;
20118;SDS011;10220;42.716;23.306;2023-03-08T12:57:45;0.82;;;0.82;;
20118;SDS011;10220;42.716;23.306;2023-03-08T13:00:28;1.40;;;0.88;;
20118;SDS011;10220;42.716;23.306;2023-03-08T13:02:59;1.30;;;0.80;;
20118;SDS011;10220;42.716;23.306;2023-03-08T13:05:31;1.23;;;0.70;;
20118;SDS011;10220;42.716;23.306;2023-03-08T13:08:05;0.80;;;0.70;;
20118;SDS011;10220;42.716;23.306;2023-03-08T13:18:39;0.73;;;0.63;;
20118;SDS011;10220;42.716;23.306;2023-03-08T13:21:13;0.98;;;0.75;;
20118;SDS011;10220;42.716;23.306;2023-03-08T13:24:20;2.20;;;0.80;;
20118;SDS011;10220;42.716;23.306;2023-03-08T13:29:42;1.52;;;1.20;;
20118;SDS011;10220;42.716;23.306;2023-03-08T13:32:15;1.92;;;0.90;;
20118;SDS011;10220;42.716;23.306;2023-03-08T13:34:43;0.90;;;0.70;;
20118;SDS011;10220;42.716;23.306;2023-03-08T13:37:21;0.52;;;0.52;;
20118;SDS011;10220;42.716;23.306;2023-03-08T13:39:54;2.05;;;0.73;;
20118;SDS011;10220;42.716;23.306;2023-03-08T13:42:22;1.05;;;0.77;;
20118;SDS011;10220;42.716;23.306;2023-03-08T13:44:51;0.98;;;0.70;;
20118;SDS011;10220;42.716;23.306;2023-03-08T13:47:20;2.92;;;0.85;;
20118;SDS011;10220;42.716;23.306;2023-03-08T13:49:46;3.03;;;1.20;;
20118;SDS011;10220;42.716;23.306;2023-03-08T13:52:18;1.70;;;0.90;;
20118;SDS011;10220;42.716;23.306;2023-03-08T13:54:52;1.75;;;0.80;;
20118;SDS011;10220;42.716;23.306;2023-03-08T13:57:27;0.90;;;0.73;;
20118;SDS011;10220;42.716;23.306;2023-03-08T13:59:58;1.05;;;0.90;;
20118;SDS011;10220;42.716;23.306;2023-03-08T14:02:25;1.08;;;0.88;;
20118;SDS011;10220;42.716;23.306;2023-03-08T14:04:52;1.00;;;0.88;;
20118;SDS011;10220;42.716;23.306;2023-03-08T14:07:22;2.10;;;0.98;;
20118;SDS011;10220;42.716;23.306;2023-03-08T14:09:49;2.35;;;0.90;;
20118;SDS011;10220;42.716;23.306;2023-03-08T14:12:16;2.05;;;0.95;;
20118;SDS011;10220;42.716;23.306;2023-03-08T14:14:46;1.08;;;0.90;;
20118;SDS011;10220;42.716;23.306;2023-03-08T14:17:22;1.30;;;1.10;;
20118;SDS011;10220;42.716;23.306;2023-03-08T14:19:52;2.75;;;1.30;;
20118;SDS011;10220;42.716;23.306;2023-03-08T14:22:20;1.70;;;1.17;;
20118;SDS011;10220;42.716;23.306;2023-03-08T14:24:48;2.25;;;1.10;;
20118;SDS011;10220;42.716;23.306;2023-03-08T14:29:45;5.57;;;3.92;;
20118;SDS011;10220;42.716;23.306;2023-03-08T14:39:29;1.67;;;1.15;;
20118;SDS011;10220;42.716;23.306;2023-03-08T14:41:57;3.53;;;1.13;;
20118;SDS011;10220;42.716;23.306;2023-03-08T14:44:24;1.77;;;1.05;;
20118;SDS011;10220;42.716;23.306;2023-03-08T14:46:52;4.68;;;3.03;;
20118;SDS011;10220;42.716;23.306;2023-03-08T14:49:23;6.15;;;1.60;;
20118;SDS011;10220;42.716;23.306;2023-03-08T14:51:53;4.82;;;1.90;;
20118;SDS011;10220;42.716;23.306;2023-03-08T14:56:44;4.15;;;1.50;;
20118;SDS011;10220;42.716;23.306;2023-03-08T14:59:11;2.05;;;1.27;;
20118;SDS011;10220;42.716;23.306;2023-03-08T15:01:37;1.63;;;1.52;;
20118;SDS011;10220;42.716;23.306;2023-03-08T15:04:03;1.67;;;1.38;;
20118;SDS011;10220;42.716;23.306;2023-03-08T15:06:39;5.40;;;1.73;;
20118;SDS011;10220;42.716;23.306;2023-03-08T15:09:06;1.90;;;1.60;;
20118;SDS011;10220;42.716;23.306;2023-03-08T15:11:32;3.00;;;2.10;;
20118;SDS011;10220;42.716;23.306;2023-03-08T15:13:58;5.55;;;1.83;;
20118;SDS011;10220;42.716;23.306;2023-03-08T15:16:24;4.07;;;1.60;;
20118;SDS011;10220;42.716;23.306;2023-03-08T15:18:50;1.52;;;1.20;;
20118;SDS011;10220;42.716;23.306;2023-03-08T15:21:17;1.52;;;1.20;;
20118;SDS011;10220;42.716;23.306;2023-03-08T15:23:46;1.52;;;1.20;;
20118;SDS011;10220;42.716;23.306;2023-03-08T15:26:13;3.30;;;1.30;;
20118;SDS011;10220;42.716;23.306;2023-03-08T15:28:45;3.42;;;1.38;;
20118;SDS011;10220;42.716;23.306;2023-03-08T15:31:11;1.88;;;1.30;;
20118;SDS011;10220;42.716;23.306;2023-03-08T15:33:37;2.40;;;1.40;;
20118;SDS011;10220;42.716;23.306;2023-03-08T15:36:02;4.20;;;2.67;;
20118;SDS011;10220;42.716;23.306;2023-03-08T15:38:28;2.17;;;1.55;;
20118;SDS011;10220;42.716;23.306;2023-03-08T15:40:53;2.22;;;1.38;;
20118;SDS011;10220;42.716;23.306;2023-03-08T15:43:19;2.28;;;1.35;;
20118;SDS011;10220;42.716;23.306;2023-03-08T15:45:44;1.63;;;1.05;;
20118;SDS011;10220;42.716;23.306;2023-03-08T15:48:17;5.70;;;3.42;;
20118;SDS011;10220;42.716;23.306;2023-03-08T15:50:49;3.97;;;2.67;;
20118;SDS011;10220;42.716;23.306;2023-03-08T15:53:14;3.00;;;2.70;;
20118;SDS011;10220;42.716;23.306;2023-03-08T15:55:40;2.47;;;1.70;;
20118;SDS011;10220;42.716;23.306;2023-03-08T15:58:05;3.22;;;1.58;;
20118;SDS011;10220;42.716;23.306;2023-03-08T16:00:34;2.00;;;1.38;;
20118;SDS011;10220;42.716;23.306;2023-03-08T16:03:00;1.25;;;1.15;;